sensor_id;sensor_type;location;lat;lon;timestamp;P1;durP1;ratioP1;P2;durP2;ratioP2
18893;SDS011;9579;49.488;8.226;2022-08-01T05:00:21;2.88;;;2.67;;
18893;SDS011;9579;49.488;8.226;2022-08-01T05:03:08;2.67;;;2.35;;
18893;SDS011;9579;49.488;8.226;2022-08-01T05:05:55;2.33;;;2.13;;
18893;SDS011;9579;49.488;8.226;2022-08-01T05:08:42;2.60;;;2.40;;
18893;SDS011;9579;49.488;8.226;2022-08-01T05:11:32;2.85;;;2.60;;
18893;SDS011;9579;49.488;8.226;2022-08-01T05:14:19;2.20;;;2.10;;
18893;SDS011;9579;49.488;8.226;2022-08-01T05:17:08;2.20;;;2.10;;
18893;SDS011;9579;49.488;8.226;2022-08-01T05:19:56;2.55;;;1.88;;
18893;SDS011;9579;49.488;8.226;2022-08-01T05:22:43;2.20;;;2.00;;
18893;SDS011;9579;49.488;8.226;2022-08-01T05:25:30;2.38;;;2.13;;
18893;SDS011;9579;49.488;8.226;2022-08-01T05:28:17;2.03;;;1.90;;
18893;SDS011;9579;49.488;8.226;2022-08-01T05:31:04;3.05;;;1.98;;
18893;SDS011;9579;49.488;8.226;2022-08-01T05:33:52;2.28;;;1.90;;
18893;SDS011;9579;49.488;8.226;2022-08-01T05:36:39;1.95;;;1.75;;
18893;SDS011;9579;49.488;8.226;2022-08-01T05:39:26;2.03;;;1.70;;
18893;SDS011;9579;49.488;8.226;2022-08-01T05:42:13;1.70;;;1.60;;
18893;SDS011;9579;49.488;8.226;2022-08-01T05:45:00;3.13;;;1.70;;
18893;SDS011;9579;49.488;8.226;2022-08-01T05:47:47;1.90;;;1.70;;
18893;SDS011;9579;49.488;8.226;2022-08-01T05:50:36;1.42;;;1.33;;
18893;SDS011;9579;49.488;8.226;2022-08-01T05:53:23;3.33;;;1.60;;
18893;SDS011;9579;49.488;8.226;2022-08-01T05:56:10;2.15;;;1.40;;
18893;SDS011;9579;49.488;8.226;2022-08-01T05:58:57;1.70;;;1.60;;
18893;SDS011;9579;49.488;8.226;2022-08-01T06:01:44;3.15;;;1.50;;
18893;SDS011;9579;49.488;8.226;2022-08-01T06:04:31;1.50;;;1.40;;
18893;SDS011;9579;49.488;8.226;2022-08-01T06:07:19;1.40;;;1.30;;
18893;SDS011;9579;49.488;8.226;2022-08-01T06:10:07;1.73;;;1.30;;
18893;SDS011;9579;49.488;8.226;2022-08-01T06:12:54;1.40;;;1.30;;
18893;SDS011;9579;49.488;8.226;2022-08-01T06:15:41;1.52;;;1.40;;
18893;SDS011;9579;49.488;8.226;2022-08-01T06:18:28;1.65;;;1.55;;
18893;SDS011;9579;49.488;8.226;2022-08-01T06:21:16;1.58;;;1.45;;
18893;SDS011;9579;49.488;8.226;2022-08-01T06:24:04;1.50;;;1.40;;
18893;SDS011;9579;49.488;8.226;2022-08-01T06:26:52;1.65;;;1.50;;
18893;SDS011;9579;49.488;8.226;2022-08-01T06:29:38;1.50;;;1.40;;
18893;SDS011;9579;49.488;8.226;2022-08-01T06:32:26;1.50;;;1.40;;
18893;SDS011;9579;49.488;8.226;2022-08-01T06:35:13;2.25;;;1.50;;
18893;SDS011;9579;49.488;8.226;2022-08-01T06:38:00;1.50;;;1.40;;
18893;SDS011;9579;49.488;8.226;2022-08-01T06:40:49;1.50;;;1.40;;
18893;SDS011;9579;49.488;8.226;2022-08-01T06:43:36;1.60;;;1.40;;
18893;SDS011;9579;49.488;8.226;2022-08-01T06:46:23;1.50;;;1.40;;
18893;SDS011;9579;49.488;8.226;2022-08-01T06:49:10;1.55;;;1.40;;
18893;SDS011;9579;49.488;8.226;2022-08-01T06:51:57;1.98;;;1.50;;
18893;SDS011;9579;49.488;8.226;2022-08-01T06:54:44;1.50;;;1.40;;
18893;SDS011;9579;49.488;8.226;2022-08-01T06:57:33;1.50;;;1.40;;
18893;SDS011;9579;49.488;8.226;2022-08-01T07:00:20;1.60;;;1.50;;
18893;SDS011;9579;49.488;8.226;2022-08-01T07:03:08;1.63;;;1.52;;
18893;SDS011;9579;49.488;8.226;2022-08-01T07:05:55;2.10;;;1.42;;
18893;SDS011;9579;49.488;8.226;2022-08-01T07:08:42;3.03;;;1.50;;
18893;SDS011;9579;49.488;8.226;2022-08-01T07:11:29;1.88;;;1.35;;
18893;SDS011;9579;49.488;8.226;2022-08-01T07:14:18;1.73;;;1.63;;
18893;SDS011;9579;49.488;8.226;2022-08-01T07:17:05;1.98;;;1.45;;
18893;SDS011;9579;49.488;8.226;2022-08-01T07:19:52;1.70;;;1.60;;
18893;SDS011;9579;49.488;8.226;2022-08-01T07:22:39;2.25;;;1.73;;
18893;SDS011;9579;49.488;8.226;2022-08-01T07:25:26;2.60;;;1.50;;
18893;SDS011;9579;49.488;8.226;2022-08-01T07:28:13;1.50;;;1.40;;
18893;SDS011;9579;49.488;8.226;2022-08-01T07:31:02;1.38;;;1.27;;
18893;SDS011;9579;49.488;8.226;2022-08-01T07:33:49;1.30;;;1.20;;
18893;SDS011;9579;49.488;8.226;2022-08-01T07:36:36;1.60;;;1.35;;
18893;SDS011;9579;49.488;8.226;2022-08-01T07:39:23;1.50;;;1.40;;
18893;SDS011;9579;49.488;8.226;2022-08-01T07:42:10;1.60;;;1.50;;
18893;SDS011;9579;49.488;8.226;2022-08-01T07:44:57;2.65;;;1.50;;
18893;SDS011;9579;49.488;8.226;2022-08-01T07:47:45;1.50;;;1.40;;
18893;SDS011;9579;49.488;8.226;2022-08-01T07:50:34;1.45;;;1.35;;
18893;SDS011;9579;49.488;8.226;2022-08-01T07:53:21;2.75;;;1.30;;
18893;SDS011;9579;49.488;8.226;2022-08-01T07:56:09;1.42;;;1.33;;
18893;SDS011;9579;49.488;8.226;2022-08-01T07:58:56;1.40;;;1.30;;
18893;SDS011;9579;49.488;8.226;2022-08-01T08:01:43;1.52;;;1.20;;
18893;SDS011;9579;49.488;8.226;2022-08-01T08:04:31;1.80;;;1.38;;
18893;SDS011;9579;49.488;8.226;2022-08-01T08:07:18;3.15;;;1.40;;
18893;SDS011;9579;49.488;8.226;2022-08-01T08:10:05;2.10;;;1.30;;
18893;SDS011;9579;49.488;8.226;2022-08-01T08:12:53;1.60;;;1.23;;
18893;SDS011;9579;49.488;8.226;2022-08-01T08:15:40;1.50;;;1.40;;
18893;SDS011;9579;49.488;8.226;2022-08-01T08:18:27;1.45;;;1.33;;
18893;SDS011;9579;49.488;8.226;2022-08-01T08:21:15;2.80;;;1.50;;
18893;SDS011;9579;49.488;8.226;2022-08-01T08:24:02;1.50;;;1.40;;
18893;SDS011;9579;49.488;8.226;2022-08-01T08:27:08;1.48;;;1.27;;
18893;SDS011;9579;49.488;8.226;2022-08-01T08:29:56;1.45;;;1.35;;
18893;SDS011;9579;49.488;8.226;2022-08-01T08:32:43;1.50;;;1.40;;
18893;SDS011;9579;49.488;8.226;2022-08-01T08:35:30;1.50;;;1.40;;
18893;SDS011;9579;49.488;8.226;2022-08-01T08:38:19;1.40;;;1.30;;
18893;SDS011;9579;49.488;8.226;2022-08-01T08:41:06;1.73;;;1.35;;
18893;SDS011;9579;49.488;8.226;2022-08-01T08:43:53;1.35;;;1.25;;
18893;SDS011;9579;49.488;8.226;2022-08-01T08:46:46;2.55;;;1.60;;
18893;SDS011;9579;49.488;8.226;2022-08-01T08:49:34;1.45;;;1.35;;
18893;SDS011;9579;49.488;8.226;2022-08-01T08:52:22;2.08;;;1.40;;
18893;SDS011;9579;49.488;8.226;2022-08-01T08:55:11;2.70;;;1.50;;
18893;SDS011;9579;49.488;8.226;2022-08-01T08:58:00;2.47;;;1.50;;
18893;SDS011;9579;49.488;8.226;2022-08-01T09:00:51;3.13;;;1.48;;
18893;SDS011;9579;49.488;8.226;2022-08-01T09:03:39;1.95;;;1.50;;
18893;SDS011;9579;49.488;8.226;2022-08-01T09:06:26;1.67;;;1.58;;
18893;SDS011;9579;49.488;8.226;2022-08-01T09:09:15;1.77;;;1.45;;
18893;SDS011;9579;49.488;8.226;2022-08-01T09:12:03;1.38;;;1.30;;
18893;SDS011;9579;49.488;8.226;2022-08-01T09:14:51;1.67;;;1.40;;
18893;SDS011;9579;49.488;8.226;2022-08-01T09:17:39;2.03;;;1.60;;
18893;SDS011;9579;49.488;8.226;2022-08-01T09:20:27;1.92;;;1.60;;
18893;SDS011;9579;49.488;8.226;2022-08-01T09:26:20;1.60;;;1.50;;
18893;SDS011;9579;49.488;8.226;2022-08-01T09:29:19;2.58;;;1.67;;
18893;SDS011;9579;49.488;8.226;2022-08-01T09:32:07;1.60;;;1.50;;
18893;SDS011;9579;49.488;8.226;2022-08-01T09:34:55;1.52;;;1.42;;
18893;SDS011;9579;49.488;8.226;2022-08-01T09:37:42;1.77;;;1.67;;
18893;SDS011;9579;49.488;8.226;2022-08-01T09:40:43;1.40;;;1.40;;
18893;SDS011;9579;49.488;8.226;2022-08-01T09:43:34;1.65;;;1.55;;
18893;SDS011;9579;49.488;8.226;2022-08-01T09:46:22;1.63;;;1.52;;
18893;SDS011;9579;49.488;8.226;2022-08-01T09:49:10;2.65;;;2.45;;
18893;SDS011;9579;49.488;8.226;2022-08-01T09:51:58;3.42;;;3.13;;
18893;SDS011;9579;49.488;8.226;2022-08-01T09:54:51;6.95;;;4.70;;
18893;SDS011;9579;49.488;8.226;2022-08-01T09:57:38;7.97;;;4.93;;
18893;SDS011;9579;49.488;8.226;2022-08-01T10:00:26;6.70;;;3.40;;
18893;SDS011;9579;49.488;8.226;2022-08-01T10:03:22;1.90;;;1.70;;
18893;SDS011;9579;49.488;8.226;2022-08-01T10:09:18;2.05;;;1.73;;
18893;SDS011;9579;49.488;8.226;2022-08-01T10:12:14;2.30;;;1.67;;
18893;SDS011;9579;49.488;8.226;2022-08-01T10:15:03;1.67;;;1.58;;
18893;SDS011;9579;49.488;8.226;2022-08-01T10:17:52;2.13;;;1.60;;
18893;SDS011;9579;49.488;8.226;2022-08-01T10:20:43;1.90;;;1.80;;
18893;SDS011;9579;49.488;8.226;2022-08-01T10:23:33;1.95;;;1.80;;
18893;SDS011;9579;49.488;8.226;2022-08-01T10:26:21;1.95;;;1.80;;
18893;SDS011;9579;49.488;8.226;2022-08-01T10:29:11;1.85;;;1.73;;
18893;SDS011;9579;49.488;8.226;2022-08-01T10:31:59;1.98;;;1.88;;
18893;SDS011;9579;49.488;8.226;2022-08-01T10:34:46;1.88;;;1.52;;
18893;SDS011;9579;49.488;8.226;2022-08-01T10:37:36;1.75;;;1.65;;
18893;SDS011;9579;49.488;8.226;2022-08-01T10:40:24;2.88;;;1.80;;
18893;SDS011;9579;49.488;8.226;2022-08-01T10:43:12;1.83;;;1.65;;
18893;SDS011;9579;49.488;8.226;2022-08-01T10:46:02;1.45;;;1.45;;
18893;SDS011;9579;49.488;8.226;2022-08-01T10:48:50;1.48;;;1.40;;
18893;SDS011;9579;49.488;8.226;2022-08-01T10:51:43;1.40;;;1.30;;
18893;SDS011;9579;49.488;8.226;2022-08-01T10:54:38;1.70;;;1.60;;
18893;SDS011;9579;49.488;8.226;2022-08-01T10:57:30;1.73;;;1.63;;
18893;SDS011;9579;49.488;8.226;2022-08-01T11:00:28;2.03;;;1.83;;
18893;SDS011;9579;49.488;8.226;2022-08-01T11:03:15;1.60;;;1.50;;
18893;SDS011;9579;49.488;8.226;2022-08-01T11:06:18;1.60;;;1.50;;
18893;SDS011;9579;49.488;8.226;2022-08-01T11:09:20;1.85;;;1.60;;
18893;SDS011;9579;49.488;8.226;2022-08-01T11:12:15;1.70;;;1.60;;
18893;SDS011;9579;49.488;8.226;2022-08-01T11:15:16;1.70;;;1.50;;
18893;SDS011;9579;49.488;8.226;2022-08-01T11:21:16;1.65;;;1.55;;
18893;SDS011;9579;49.488;8.226;2022-08-01T11:24:04;1.70;;;1.50;;
18893;SDS011;9579;49.488;8.226;2022-08-01T11:30:21;1.98;;;1.80;;
18893;SDS011;9579;49.488;8.226;2022-08-01T11:33:10;1.67;;;1.58;;
18893;SDS011;9579;49.488;8.226;2022-08-01T11:36:16;2.20;;;2.03;;
18893;SDS011;9579;49.488;8.226;2022-08-01T11:39:17;1.95;;;1.67;;
18893;SDS011;9579;49.488;8.226;2022-08-01T11:42:18;2.35;;;1.77;;
18893;SDS011;9579;49.488;8.226;2022-08-01T11:45:06;1.70;;;1.60;;
18893;SDS011;9579;49.488;8.226;2022-08-01T11:47:54;2.03;;;1.58;;
18893;SDS011;9579;49.488;8.226;2022-08-01T11:50:42;1.70;;;1.60;;
18893;SDS011;9579;49.488;8.226;2022-08-01T11:53:29;1.98;;;1.63;;
18893;SDS011;9579;49.488;8.226;2022-08-01T11:56:18;1.67;;;1.58;;
18893;SDS011;9579;49.488;8.226;2022-08-01T11:59:06;1.90;;;1.58;;
18893;SDS011;9579;49.488;8.226;2022-08-01T12:01:54;2.17;;;1.70;;
18893;SDS011;9579;49.488;8.226;2022-08-01T12:04:44;1.60;;;1.50;;
18893;SDS011;9579;49.488;8.226;2022-08-01T12:07:33;1.88;;;1.55;;
18893;SDS011;9579;49.488;8.226;2022-08-01T12:10:24;2.20;;;1.73;;
18893;SDS011;9579;49.488;8.226;2022-08-01T12:13:12;1.55;;;1.45;;
18893;SDS011;9579;49.488;8.226;2022-08-01T12:16:02;1.65;;;1.55;;
18893;SDS011;9579;49.488;8.226;2022-08-01T12:18:53;1.88;;;1.58;;
18893;SDS011;9579;49.488;8.226;2022-08-01T12:21:40;1.73;;;1.60;;
18893;SDS011;9579;49.488;8.226;2022-08-01T12:24:27;1.60;;;1.50;;
18893;SDS011;9579;49.488;8.226;2022-08-01T12:27:23;1.98;;;1.67;;
18893;SDS011;9579;49.488;8.226;2022-08-01T12:30:12;1.60;;;1.50;;
18893;SDS011;9579;49.488;8.226;2022-08-01T12:33:02;1.70;;;1.50;;
18893;SDS011;9579;49.488;8.226;2022-08-01T12:35:50;1.77;;;1.60;;
18893;SDS011;9579;49.488;8.226;2022-08-01T12:38:38;1.40;;;1.30;;
18893;SDS011;9579;49.488;8.226;2022-08-01T12:41:26;1.45;;;1.38;;
18893;SDS011;9579;49.488;8.226;2022-08-01T12:44:13;2.40;;;1.60;;
18893;SDS011;9579;49.488;8.226;2022-08-01T12:47:01;1.60;;;1.50;;
18893;SDS011;9579;49.488;8.226;2022-08-01T12:49:51;1.80;;;1.40;;
18893;SDS011;9579;49.488;8.226;2022-08-01T12:52:38;1.52;;;1.42;;
18893;SDS011;9579;49.488;8.226;2022-08-01T12:55:26;1.67;;;1.48;;
18893;SDS011;9579;49.488;8.226;2022-08-01T12:58:16;1.55;;;1.45;;
18893;SDS011;9579;49.488;8.226;2022-08-01T13:01:05;1.63;;;1.52;;
18893;SDS011;9579;49.488;8.226;2022-08-01T13:03:59;2.53;;;1.60;;
18893;SDS011;9579;49.488;8.226;2022-08-01T13:06:48;1.50;;;1.40;;
18893;SDS011;9579;49.488;8.226;2022-08-01T13:09:48;1.45;;;1.35;;
18893;SDS011;9579;49.488;8.226;2022-08-01T13:12:36;1.42;;;1.40;;
18893;SDS011;9579;49.488;8.226;2022-08-01T13:15:24;1.77;;;1.50;;
18893;SDS011;9579;49.488;8.226;2022-08-01T13:18:22;1.73;;;1.60;;
18893;SDS011;9579;49.488;8.226;2022-08-01T13:21:12;1.30;;;1.20;;
18893;SDS011;9579;49.488;8.226;2022-08-01T13:24:02;1.60;;;1.50;;
18893;SDS011;9579;49.488;8.226;2022-08-01T13:26:53;1.63;;;1.30;;
18893;SDS011;9579;49.488;8.226;2022-08-01T13:29:43;2.05;;;1.30;;
18893;SDS011;9579;49.488;8.226;2022-08-01T13:32:32;1.52;;;1.38;;
18893;SDS011;9579;49.488;8.226;2022-08-01T13:35:19;1.30;;;1.20;;
18893;SDS011;9579;49.488;8.226;2022-08-01T13:38:07;1.15;;;1.10;;
18893;SDS011;9579;49.488;8.226;2022-08-01T13:40:58;1.20;;;1.10;;
18893;SDS011;9579;49.488;8.226;2022-08-01T13:43:45;1.40;;;1.30;;
18893;SDS011;9579;49.488;8.226;2022-08-01T13:46:32;1.90;;;1.40;;
18893;SDS011;9579;49.488;8.226;2022-08-01T13:49:19;2.58;;;1.40;;
18893;SDS011;9579;49.488;8.226;2022-08-01T13:52:07;1.25;;;1.25;;
18893;SDS011;9579;49.488;8.226;2022-08-01T13:54:54;1.10;;;1.10;;
18893;SDS011;9579;49.488;8.226;2022-08-01T13:57:43;1.00;;;1.00;;
18893;SDS011;9579;49.488;8.226;2022-08-01T14:00:33;1.17;;;1.10;;
18893;SDS011;9579;49.488;8.226;2022-08-01T14:03:20;1.20;;;1.20;;
18893;SDS011;9579;49.488;8.226;2022-08-01T14:06:07;1.10;;;1.10;;
18893;SDS011;9579;49.488;8.226;2022-08-01T14:08:54;1.30;;;1.30;;
18893;SDS011;9579;49.488;8.226;2022-08-01T14:11:41;1.58;;;1.23;;
18893;SDS011;9579;49.488;8.226;2022-08-01T14:14:30;1.80;;;1.20;;
18893;SDS011;9579;49.488;8.226;2022-08-01T14:17:17;1.30;;;1.20;;
18893;SDS011;9579;49.488;8.226;2022-08-01T14:20:04;1.00;;;1.00;;
18893;SDS011;9579;49.488;8.226;2022-08-01T14:22:51;1.35;;;1.25;;
18893;SDS011;9579;49.488;8.226;2022-08-01T14:25:39;1.35;;;1.30;;
18893;SDS011;9579;49.488;8.226;2022-08-01T14:28:27;1.20;;;1.20;;
18893;SDS011;9579;49.488;8.226;2022-08-01T14:31:16;1.33;;;1.20;;
18893;SDS011;9579;49.488;8.226;2022-08-01T14:34:03;1.63;;;1.30;;
18893;SDS011;9579;49.488;8.226;2022-08-01T14:36:50;1.33;;;1.33;;
18893;SDS011;9579;49.488;8.226;2022-08-01T14:39:38;1.40;;;1.30;;
18893;SDS011;9579;49.488;8.226;2022-08-01T14:42:25;1.50;;;1.30;;
18893;SDS011;9579;49.488;8.226;2022-08-01T14:45:13;1.50;;;1.40;;
18893;SDS011;9579;49.488;8.226;2022-08-01T14:48:01;1.42;;;1.33;;
18893;SDS011;9579;49.488;8.226;2022-08-01T14:50:49;1.42;;;1.33;;
18893;SDS011;9579;49.488;8.226;2022-08-01T14:53:36;2.03;;;1.38;;
18893;SDS011;9579;49.488;8.226;2022-08-01T14:56:24;1.40;;;1.30;;
18893;SDS011;9579;49.488;8.226;2022-08-01T14:59:11;1.40;;;1.30;;
18893;SDS011;9579;49.488;8.226;2022-08-01T15:01:58;1.55;;;1.25;;
18893;SDS011;9579;49.488;8.226;2022-08-01T15:04:46;1.30;;;1.30;;
18893;SDS011;9579;49.488;8.226;2022-08-01T15:07:34;1.60;;;1.50;;
18893;SDS011;9579;49.488;8.226;2022-08-01T15:10:22;1.50;;;1.40;;
18893;SDS011;9579;49.488;8.226;2022-08-01T15:13:09;1.55;;;1.40;;
18893;SDS011;9579;49.488;8.226;2022-08-01T15:15:56;1.30;;;1.30;;
18893;SDS011;9579;49.488;8.226;2022-08-01T15:18:43;2.35;;;1.25;;
18893;SDS011;9579;49.488;8.226;2022-08-01T15:21:31;1.85;;;1.30;;
18893;SDS011;9579;49.488;8.226;2022-08-01T15:24:18;1.38;;;1.27;;
18893;SDS011;9579;49.488;8.226;2022-08-01T15:27:05;1.20;;;1.10;;
18893;SDS011;9579;49.488;8.226;2022-08-01T15:29:52;1.20;;;1.20;;
18893;SDS011;9579;49.488;8.226;2022-08-01T15:32:40;1.15;;;1.15;;
18893;SDS011;9579;49.488;8.226;2022-08-01T15:35:27;1.10;;;1.10;;
18893;SDS011;9579;49.488;8.226;2022-08-01T15:38:15;1.48;;;1.38;;
18893;SDS011;9579;49.488;8.226;2022-08-01T15:41:04;1.27;;;1.27;;
18893;SDS011;9579;49.488;8.226;2022-08-01T15:43:51;1.73;;;1.25;;
18893;SDS011;9579;49.488;8.226;2022-08-01T15:46:38;1.35;;;1.25;;
18893;SDS011;9579;49.488;8.226;2022-08-01T15:49:26;1.10;;;1.10;;
18893;SDS011;9579;49.488;8.226;2022-08-01T15:52:13;1.83;;;1.20;;
18893;SDS011;9579;49.488;8.226;2022-08-01T15:55:02;1.30;;;1.20;;
18893;SDS011;9579;49.488;8.226;2022-08-01T15:57:49;1.35;;;1.30;;
18893;SDS011;9579;49.488;8.226;2022-08-01T16:00:36;2.00;;;1.10;;
18893;SDS011;9579;49.488;8.226;2022-08-01T16:03:24;1.38;;;1.30;;
18893;SDS011;9579;49.488;8.226;2022-08-01T16:06:12;1.20;;;1.10;;
18893;SDS011;9579;49.488;8.226;2022-08-01T16:08:59;1.00;;;1.00;;
18893;SDS011;9579;49.488;8.226;2022-08-01T16:11:47;1.50;;;1.20;;
18893;SDS011;9579;49.488;8.226;2022-08-01T16:14:34;1.63;;;1.25;;
18893;SDS011;9579;49.488;8.226;2022-08-01T16:17:21;1.25;;;1.15;;
18893;SDS011;9579;49.488;8.226;2022-08-01T16:20:08;1.67;;;1.20;;
18893;SDS011;9579;49.488;8.226;2022-08-01T16:22:56;1.33;;;1.20;;
18893;SDS011;9579;49.488;8.226;2022-08-01T16:25:43;2.42;;;1.30;;
18893;SDS011;9579;49.488;8.226;2022-08-01T16:28:32;2.22;;;1.35;;
18893;SDS011;9579;49.488;8.226;2022-08-01T16:31:19;1.48;;;1.38;;
18893;SDS011;9579;49.488;8.226;2022-08-01T16:34:07;1.55;;;1.30;;
18893;SDS011;9579;49.488;8.226;2022-08-01T16:36:54;1.65;;;1.30;;
18893;SDS011;9579;49.488;8.226;2022-08-01T16:39:41;1.48;;;1.20;;
18893;SDS011;9579;49.488;8.226;2022-08-01T16:42:29;2.20;;;1.70;;
18893;SDS011;9579;49.488;8.226;2022-08-01T16:45:18;2.17;;;1.40;;
18893;SDS011;9579;49.488;8.226;2022-08-01T16:48:05;1.50;;;1.40;;
18893;SDS011;9579;49.488;8.226;2022-08-01T16:50:52;1.50;;;1.40;;
18893;SDS011;9579;49.488;8.226;2022-08-01T16:53:39;1.60;;;1.50;;
18893;SDS011;9579;49.488;8.226;2022-08-01T16:56:26;2.17;;;1.30;;
18893;SDS011;9579;49.488;8.226;2022-08-01T16:59:14;1.52;;;1.35;;
18893;SDS011;9579;49.488;8.226;2022-08-01T17:02:03;1.30;;;1.20;;
18893;SDS011;9579;49.488;8.226;2022-08-01T17:04:50;1.30;;;1.20;;
18893;SDS011;9579;49.488;8.226;2022-08-01T17:07:37;1.27;;;1.20;;
18893;SDS011;9579;49.488;8.226;2022-08-01T17:10:26;1.17;;;1.17;;
18893;SDS011;9579;49.488;8.226;2022-08-01T17:13:13;2.58;;;1.15;;
18893;SDS011;9579;49.488;8.226;2022-08-01T17:16:00;1.17;;;1.17;;
18893;SDS011;9579;49.488;8.226;2022-08-01T17:18:48;1.40;;;1.30;;
18893;SDS011;9579;49.488;8.226;2022-08-01T17:21:35;1.60;;;1.10;;
18893;SDS011;9579;49.488;8.226;2022-08-01T17:24:22;1.90;;;1.20;;
18893;SDS011;9579;49.488;8.226;2022-08-01T17:27:10;1.27;;;1.17;;
18893;SDS011;9579;49.488;8.226;2022-08-01T17:29:57;1.83;;;1.20;;
18893;SDS011;9579;49.488;8.226;2022-08-01T17:32:44;2.15;;;1.30;;
18893;SDS011;9579;49.488;8.226;2022-08-01T17:35:33;1.17;;;1.10;;
18893;SDS011;9579;49.488;8.226;2022-08-01T17:38:21;1.33;;;1.23;;
18893;SDS011;9579;49.488;8.226;2022-08-01T17:41:08;1.08;;;1.05;;
18893;SDS011;9579;49.488;8.226;2022-08-01T17:43:55;1.20;;;1.10;;
18893;SDS011;9579;49.488;8.226;2022-08-01T17:46:42;1.55;;;1.10;;
18893;SDS011;9579;49.488;8.226;2022-08-01T17:49:29;1.17;;;1.08;;
18893;SDS011;9579;49.488;8.226;2022-08-01T17:52:18;1.10;;;1.10;;
18893;SDS011;9579;49.488;8.226;2022-08-01T17:55:06;1.00;;;1.00;;
18893;SDS011;9579;49.488;8.226;2022-08-01T17:58:12;1.20;;;1.10;;
18893;SDS011;9579;49.488;8.226;2022-08-01T18:01:02;1.48;;;1.40;;
18893;SDS011;9579;49.488;8.226;2022-08-01T18:03:49;1.90;;;1.70;;
18893;SDS011;9579;49.488;8.226;2022-08-01T18:06:37;2.42;;;2.22;;
18893;SDS011;9579;49.488;8.226;2022-08-01T18:09:27;2.65;;;2.20;;
18893;SDS011;9579;49.488;8.226;2022-08-01T18:12:16;3.22;;;2.40;;
18893;SDS011;9579;49.488;8.226;2022-08-01T18:15:04;2.63;;;2.28;;
18893;SDS011;9579;49.488;8.226;2022-08-01T18:17:52;2.85;;;2.50;;
18893;SDS011;9579;49.488;8.226;2022-08-01T18:20:39;2.72;;;2.53;;
18893;SDS011;9579;49.488;8.226;2022-08-01T18:23:26;2.50;;;2.40;;
18893;SDS011;9579;49.488;8.226;2022-08-01T18:26:14;2.63;;;2.42;;
18893;SDS011;9579;49.488;8.226;2022-08-01T18:29:01;3.40;;;2.85;;
18893;SDS011;9579;49.488;8.226;2022-08-01T18:31:49;3.13;;;2.92;;
18893;SDS011;9579;49.488;8.226;2022-08-01T18:34:36;3.45;;;3.25;;
18893;SDS011;9579;49.488;8.226;2022-08-01T18:37:23;3.20;;;3.00;;
18893;SDS011;9579;49.488;8.226;2022-08-01T18:40:10;3.40;;;3.20;;
18893;SDS011;9579;49.488;8.226;2022-08-01T18:42:58;3.40;;;3.10;;
18893;SDS011;9579;49.488;8.226;2022-08-01T18:45:45;4.13;;;3.10;;
18893;SDS011;9579;49.488;8.226;2022-08-01T18:48:32;3.40;;;3.20;;
18893;SDS011;9579;49.488;8.226;2022-08-01T18:51:21;4.78;;;3.00;;
18893;SDS011;9579;49.488;8.226;2022-08-01T18:54:11;3.72;;;3.47;;
18893;SDS011;9579;49.488;8.226;2022-08-01T18:56:58;3.28;;;3.08;;
18893;SDS011;9579;49.488;8.226;2022-08-01T18:59:46;3.88;;;3.58;;
18893;SDS011;9579;49.488;8.226;2022-08-01T19:02:34;3.40;;;3.20;;
18893;SDS011;9579;49.488;8.226;2022-08-01T19:05:21;3.38;;;3.10;;
18893;SDS011;9579;49.488;8.226;2022-08-01T19:08:08;3.60;;;3.30;;
18893;SDS011;9579;49.488;8.226;2022-08-01T19:10:55;3.45;;;3.25;;
18893;SDS011;9579;49.488;8.226;2022-08-01T19:13:44;3.85;;;3.60;;
18893;SDS011;9579;49.488;8.226;2022-08-01T19:16:32;3.47;;;3.28;;
18893;SDS011;9579;49.488;8.226;2022-08-01T19:19:19;3.50;;;3.20;;
18893;SDS011;9579;49.488;8.226;2022-08-01T19:22:06;3.70;;;3.30;;
18893;SDS011;9579;49.488;8.226;2022-08-01T19:24:53;3.63;;;3.42;;
18893;SDS011;9579;49.488;8.226;2022-08-01T19:27:40;3.90;;;3.60;;
18893;SDS011;9579;49.488;8.226;2022-08-01T19:30:31;3.40;;;3.10;;
18893;SDS011;9579;49.488;8.226;2022-08-01T19:33:22;3.70;;;3.42;;
18893;SDS011;9579;49.488;8.226;2022-08-01T19:36:12;3.67;;;3.45;;
18893;SDS011;9579;49.488;8.226;2022-08-01T19:39:01;3.78;;;3.40;;
18893;SDS011;9579;49.488;8.226;2022-08-01T19:41:49;3.50;;;3.30;;
18893;SDS011;9579;49.488;8.226;2022-08-01T19:44:37;3.88;;;3.58;;
18893;SDS011;9579;49.488;8.226;2022-08-01T19:47:24;3.70;;;3.45;;
18893;SDS011;9579;49.488;8.226;2022-08-01T19:50:13;3.60;;;3.40;;
18893;SDS011;9579;49.488;8.226;2022-08-01T19:53:00;4.00;;;3.60;;
18893;SDS011;9579;49.488;8.226;2022-08-01T19:55:48;3.58;;;3.38;;
18893;SDS011;9579;49.488;8.226;2022-08-01T19:58:38;3.72;;;3.35;;
18893;SDS011;9579;49.488;8.226;2022-08-01T20:01:27;3.60;;;3.30;;
18893;SDS011;9579;49.488;8.226;2022-08-01T20:04:14;3.60;;;3.30;;
18893;SDS011;9579;49.488;8.226;2022-08-01T20:07:03;3.70;;;3.40;;
18893;SDS011;9579;49.488;8.226;2022-08-01T20:09:50;4.40;;;2.92;;
18893;SDS011;9579;49.488;8.226;2022-08-01T20:12:38;3.55;;;3.25;;
18893;SDS011;9579;49.488;8.226;2022-08-01T20:15:25;3.70;;;3.40;;
18893;SDS011;9579;49.488;8.226;2022-08-01T20:18:14;3.40;;;3.10;;
18893;SDS011;9579;49.488;8.226;2022-08-01T20:21:02;3.40;;;3.10;;
18893;SDS011;9579;49.488;8.226;2022-08-01T20:23:54;3.17;;;2.97;;
18893;SDS011;9579;49.488;8.226;2022-08-01T20:26:45;3.10;;;2.90;;
18893;SDS011;9579;49.488;8.226;2022-08-01T20:29:35;3.25;;;2.80;;
18893;SDS011;9579;49.488;8.226;2022-08-01T20:32:23;3.00;;;2.85;;
18893;SDS011;9579;49.488;8.226;2022-08-01T20:35:14;3.20;;;3.00;;
18893;SDS011;9579;49.488;8.226;2022-08-01T20:38:02;5.03;;;3.08;;
18893;SDS011;9579;49.488;8.226;2022-08-01T20:40:52;3.28;;;2.97;;
18893;SDS011;9579;49.488;8.226;2022-08-01T20:43:42;3.10;;;2.85;;
18893;SDS011;9579;49.488;8.226;2022-08-01T20:46:31;3.55;;;2.80;;
18893;SDS011;9579;49.488;8.226;2022-08-01T20:49:18;3.10;;;2.80;;
18893;SDS011;9579;49.488;8.226;2022-08-01T20:52:07;2.90;;;2.70;;
18893;SDS011;9579;49.488;8.226;2022-08-01T20:54:54;3.05;;;2.75;;
18893;SDS011;9579;49.488;8.226;2022-08-01T20:57:43;3.10;;;2.90;;
18893;SDS011;9579;49.488;8.226;2022-08-01T21:00:35;3.50;;;3.20;;
18893;SDS011;9579;49.488;8.226;2022-08-01T21:03:23;2.88;;;2.67;;
18893;SDS011;9579;49.488;8.226;2022-08-01T21:06:16;3.30;;;3.10;;
18893;SDS011;9579;49.488;8.226;2022-08-01T21:09:09;3.10;;;2.90;;
18893;SDS011;9579;49.488;8.226;2022-08-01T21:12:02;2.97;;;2.78;;
18893;SDS011;9579;49.488;8.226;2022-08-01T21:14:54;3.40;;;3.20;;
18893;SDS011;9579;49.488;8.226;2022-08-01T21:17:45;3.03;;;2.83;;
18893;SDS011;9579;49.488;8.226;2022-08-01T21:20:38;3.05;;;2.85;;
18893;SDS011;9579;49.488;8.226;2022-08-01T21:23:28;3.20;;;3.00;;
18893;SDS011;9579;49.488;8.226;2022-08-01T21:26:19;3.03;;;2.83;;
18893;SDS011;9579;49.488;8.226;2022-08-01T21:29:09;3.17;;;2.97;;
18893;SDS011;9579;49.488;8.226;2022-08-01T21:31:57;3.20;;;3.00;;
18893;SDS011;9579;49.488;8.226;2022-08-01T21:35:00;3.10;;;2.90;;
18893;SDS011;9579;49.488;8.226;2022-08-01T21:37:49;3.30;;;3.08;;
18893;SDS011;9579;49.488;8.226;2022-08-01T21:40:36;3.10;;;2.90;;
18893;SDS011;9579;49.488;8.226;2022-08-01T21:43:23;3.00;;;2.80;;
18893;SDS011;9579;49.488;8.226;2022-08-01T21:46:10;3.60;;;3.30;;
18893;SDS011;9579;49.488;8.226;2022-08-01T21:48:59;3.47;;;3.20;;
18893;SDS011;9579;49.488;8.226;2022-08-01T21:51:49;3.72;;;3.40;;
18893;SDS011;9579;49.488;8.226;2022-08-01T21:54:45;3.30;;;2.97;;
18893;SDS011;9579;49.488;8.226;2022-08-01T21:57:50;4.05;;;3.22;;
18893;SDS011;9579;49.488;8.226;2022-08-01T22:00:59;3.53;;;3.22;;
18893;SDS011;9579;49.488;8.226;2022-08-01T22:03:52;3.38;;;3.17;;
18893;SDS011;9579;49.488;8.226;2022-08-01T22:06:45;3.63;;;3.33;;
18893;SDS011;9579;49.488;8.226;2022-08-01T22:09:35;3.22;;;3.03;;
18893;SDS011;9579;49.488;8.226;2022-08-01T22:12:23;3.50;;;3.30;;
18893;SDS011;9579;49.488;8.226;2022-08-01T22:15:11;3.38;;;3.15;;
18893;SDS011;9579;49.488;8.226;2022-08-01T22:17:59;3.53;;;3.22;;
18893;SDS011;9579;49.488;8.226;2022-08-01T22:20:47;3.70;;;3.40;;
18893;SDS011;9579;49.488;8.226;2022-08-01T22:23:37;3.20;;;3.00;;